Time;durP1;ratioP1;P1;durP2;ratioP2;P2;SDS_P1;SDS_P2;PMS_P1;PMS_P2;Temp;Humidity;BMP_temperature;BMP_pressure;BME280_temperature;BME280_humidity;BME280_pressure;Samples;Min_cycle;Max_cycle;Signal;HPM_P1;HPM_P2
2022/06/15 00:00:57;;;;;;;9.50;6.60;;;11.20;86.90;;;;;;5013552;28;20063;-43
2022/06/15 00:03:30;;;;;;;10.20;7.32;;;11.30;86.80;;;;;;5030249;28;20079;-43
2022/06/15 00:06:19;;;;;;;8.13;7.32;;;11.30;86.70;;;;;;5035349;28;20017;-44
2022/06/15 00:08:51;;;;;;;11.67;7.47;;;11.20;86.70;;;;;;5028912;28;20442;-42
2022/06/15 00:11:30;;;;;;;9.73;7.25;;;11.20;86.80;;;;;;5031001;28;20264;-43
2022/06/15 00:13:59;;;;;;;8.68;7.30;;;11.20;86.70;;;;;;5030267;28;20071;-44
2022/06/15 00:16:29;;;;;;;10.40;7.95;;;11.20;86.80;;;;;;5030870;28;20084;-44
2022/06/15 00:18:55;;;;;;;11.48;7.28;;;11.20;86.80;;;;;;5030346;28;20373;-42
2022/06/15 00:21:23;;;;;;;9.48;6.65;;;11.20;86.90;;;;;;5030450;28;20441;-43
2022/06/15 00:23:51;;;;;;;8.95;7.70;;;11.20;87.10;;;;;;5030199;28;20034;-43
2022/06/15 00:26:21;;;;;;;7.30;6.38;;;11.20;87.20;;;;;;5013115;28;20040;-43
2022/06/15 00:28:48;;;;;;;9.80;6.65;;;11.20;87.30;;;;;;5012431;28;20022;-43
2022/06/15 00:31:15;;;;;;;11.52;7.82;;;11.30;87.40;;;;;;5045888;28;20112;-42
2022/06/15 00:33:42;;;;;;;8.63;7.38;;;11.40;87.50;;;;;;5030049;28;20109;-43
2022/06/15 00:36:12;;;;;;;9.10;7.65;;;11.40;87.60;;;;;;5049276;28;20082;-45
2022/06/15 00:38:58;;;;;;;8.55;7.43;;;11.40;87.50;;;;;;5049999;28;20048;-43
2022/06/15 00:41:36;;;;;;;9.02;6.78;;;11.40;87.50;;;;;;4993327;28;20042;-44
2022/06/15 00:44:26;;;;;;;8.80;7.63;;;11.40;87.60;;;;;;5013673;28;20083;-43
2022/06/15 00:47:01;;;;;;;12.13;8.50;;;11.50;87.60;;;;;;5029140;28;20462;-44
2022/06/15 00:49:56;;;;;;;8.75;7.45;;;11.50;87.80;;;;;;5027988;28;20045;-44
2022/06/15 00:52:33;;;;;;;11.10;7.78;;;11.60;87.80;;;;;;5030003;28;20030;-43
2022/06/15 00:55:11;;;;;;;11.00;8.98;;;11.60;87.90;;;;;;5044027;28;20041;-43
2022/06/15 00:57:39;;;;;;;10.20;8.27;;;11.70;87.90;;;;;;5044327;28;20042;-43
2022/06/15 01:00:11;;;;;;;12.55;8.38;;;11.70;87.90;;;;;;5029102;28;20030;-42
2022/06/15 01:02:40;;;;;;;8.55;7.53;;;11.70;87.80;;;;;;5029558;28;20037;-43
2022/06/15 01:05:20;;;;;;;11.68;8.07;;;11.80;87.90;;;;;;5029013;28;20175;-42
2022/06/15 01:08:05;;;;;;;;;;;11.80;87.90;;;;;;5030079;28;20356;-44
2022/06/15 01:10:37;;;;;;;10.32;7.95;;;11.80;87.80;;;;;;5028876;28;19956;-43
2022/06/15 01:13:11;;;;;;;9.02;7.93;;;11.80;87.90;;;;;;5028965;28;20052;-43
2022/06/15 01:15:45;;;;;;;10.18;8.73;;;11.80;87.90;;;;;;5012105;28;20130;-43
2022/06/15 01:18:26;;;;;;;10.65;7.88;;;11.80;87.80;;;;;;5033014;28;20031;-43
2022/06/15 01:21:10;;;;;;;9.52;7.72;;;11.80;87.90;;;;;;5049578;28;20120;-43
2022/06/15 01:24:14;;;;;;;9.93;8.50;;;11.80;87.90;;;;;;5038283;28;20030;-44
2022/06/15 01:27:17;;;;;;;9.07;7.22;;;11.80;87.80;;;;;;5029338;28;20147;-42
2022/06/15 01:30:01;;;;;;;9.52;8.07;;;11.80;87.80;;;;;;5047654;28;20071;-43
2022/06/15 01:32:45;;;;;;;7.95;6.60;;;11.70;87.80;;;;;;5046797;28;20021;-42
2022/06/15 01:35:28;;;;;;;9.05;7.68;;;11.70;87.90;;;;;;5029366;28;20064;-43
2022/06/15 01:38:33;;;;;;;11.27;8.52;;;11.70;87.90;;;;;;5028762;28;20045;-42
2022/06/15 01:41:14;;;;;;;7.93;7.07;;;11.70;87.90;;;;;;5012513;28;20458;-42
2022/06/15 01:43:57;;;;;;;7.85;6.75;;;11.70;88.00;;;;;;5028593;28;20405;-45
2022/06/15 01:46:24;;;;;;;8.30;6.55;;;11.70;88.00;;;;;;5029204;28;20104;-42
2022/06/15 01:48:53;;;;;;;8.20;6.68;;;11.70;88.00;;;;;;5044347;28;20420;-41
2022/06/15 01:51:24;;;;;;;8.85;7.43;;;11.70;88.10;;;;;;5029417;28;20026;-43
2022/06/15 01:54:01;;;;;;;10.82;7.28;;;11.70;88.00;;;;;;5029076;28;20037;-43
2022/06/15 01:56:31;;;;;;;8.55;7.13;;;11.70;88.10;;;;;;5030458;28;20033;-43
2022/06/15 01:59:07;;;;;;;7.60;6.72;;;11.70;88.20;;;;;;5048458;28;20088;-42
2022/06/15 02:02:01;;;;;;;11.13;7.03;;;11.70;88.10;;;;;;5033231;28;20034;-45
2022/06/15 02:04:45;;;;;;;8.10;7.13;;;11.70;88.20;;;;;;5047293;28;20122;-44
2022/06/15 02:07:53;;;;;;;8.68;6.93;;;11.70;88.20;;;;;;5033138;28;20494;-42
2022/06/15 02:10:34;;;;;;;7.82;6.35;;;11.70;88.30;;;;;;5013228;28;20044;-43
2022/06/15 02:13:11;;;;;;;6.22;5.18;;;11.70;88.30;;;;;;5017511;28;20100;-43
2022/06/15 02:15:42;;;;;;;8.10;7.07;;;11.70;88.30;;;;;;5053082;28;20433;-44
2022/06/15 02:18:12;;;;;;;10.77;7.53;;;11.70;88.30;;;;;;5049258;28;20045;-42
2022/06/15 02:20:51;;;;;;;7.75;6.88;;;11.70;88.30;;;;;;5048314;28;20030;-42
2022/06/15 02:23:19;;;;;;;9.32;6.93;;;11.70;88.40;;;;;;5035261;28;20032;-42
2022/06/15 02:25:49;;;;;;;9.13;7.78;;;11.70;88.20;;;;;;5035103;28;20442;-41
2022/06/15 02:28:18;;;;;;;8.93;7.45;;;11.60;88.20;;;;;;5050907;28;20029;-43
2022/06/15 02:30:47;;;;;;;10.23;7.75;;;11.60;88.20;;;;;;5052137;28;20025;-42
2022/06/15 02:33:29;;;;;;;9.23;7.43;;;11.60;88.20;;;;;;5033360;28;20402;-42
2022/06/15 02:36:00;;;;;;;11.00;7.20;;;11.60;88.10;;;;;;5051829;28;20051;-41
2022/06/15 02:38:29;;;;;;;10.35;8.27;;;11.60;88.20;;;;;;5039648;28;20383;-41
2022/06/15 02:40:56;;;;;;;10.27;8.32;;;11.60;88.30;;;;;;5032231;28;20474;-41
2022/06/15 02:43:25;;;;;;;9.85;8.05;;;11.60;88.30;;;;;;5030952;28;20037;-42
2022/06/15 02:45:56;;;;;;;9.18;7.68;;;11.60;88.20;;;;;;5031630;28;20033;-43
2022/06/15 02:48:24;;;;;;;8.60;7.47;;;11.60;88.30;;;;;;5012766;28;20463;-41
2022/06/15 02:51:15;;;;;;;9.63;8.05;;;11.60;88.40;;;;;;5012816;28;20026;-41
2022/06/15 02:53:43;;;;;;;8.75;7.85;;;11.60;88.40;;;;;;5005824;28;20122;-41
2022/06/15 02:56:12;;;;;;;9.88;8.45;;;11.70;88.50;;;;;;5012609;28;20427;-42
2022/06/15 02:58:45;;;;;;;9.90;8.40;;;11.60;88.60;;;;;;5031819;28;20068;-42
2022/06/15 03:01:12;;;;;;;14.02;9.25;;;11.70;88.70;;;;;;5014784;28;20026;-42
2022/06/15 03:03:41;;;;;;;10.05;8.63;;;11.70;88.80;;;;;;5030755;28;20029;-42
2022/06/15 03:06:11;;;;;;;10.98;8.20;;;11.70;88.90;;;;;;5032036;28;20029;-41
2022/06/15 03:08:37;;;;;;;8.40;7.50;;;11.80;88.90;;;;;;5018289;28;20034;-43
2022/06/15 03:11:05;;;;;;;9.10;7.35;;;11.80;88.90;;;;;;5013166;28;20033;-42
2022/06/15 03:13:31;;;;;;;9.88;8.57;;;11.90;88.90;;;;;;5012219;28;20026;-42
2022/06/15 03:15:58;;;;;;;10.32;8.70;;;11.90;88.70;;;;;;5027784;28;20108;-42
2022/06/15 03:18:31;;;;;;;8.10;7.05;;;11.90;88.70;;;;;;5011409;28;20034;-43
2022/06/15 03:21:05;;;;;;;8.80;7.90;;;11.90;88.60;;;;;;5026970;28;20427;-42
2022/06/15 03:23:32;;;;;;;8.95;7.53;;;11.90;88.70;;;;;;5025272;28;20045;-44
2022/06/15 03:26:00;;;;;;;10.30;9.05;;;11.90;88.70;;;;;;5032035;28;20026;-42
2022/06/15 03:28:27;;;;;;;9.15;7.72;;;11.90;88.70;;;;;;5012782;28;20037;-42
2022/06/15 03:30:57;;;;;;;9.45;8.48;;;11.90;88.70;;;;;;5031460;28;20389;-44
2022/06/15 03:33:24;;;;;;;8.48;7.50;;;11.90;88.70;;;;;;5017142;28;20073;-41
2022/06/15 03:35:50;;;;;;;10.82;8.35;;;11.90;88.70;;;;;;5011807;28;20049;-43
2022/06/15 03:38:18;;;;;;;11.82;9.35;;;12.00;88.70;;;;;;5032408;28;20068;-41
2022/06/15 03:40:49;;;;;;;11.05;9.23;;;12.00;88.60;;;;;;5051237;28;20033;-42
2022/06/15 03:43:17;;;;;;;12.43;9.40;;;12.10;88.80;;;;;;5039014;28;20526;-43
2022/06/15 03:45:43;;;;;;;10.07;8.88;;;12.20;88.70;;;;;;5031381;28;20388;-41
2022/06/15 03:48:14;;;;;;;10.23;8.82;;;12.20;88.70;;;;;;5030960;28;20043;-43
2022/06/15 03:50:42;;;;;;;12.85;10.80;;;12.20;88.70;;;;;;5031379;28;20032;-44
2022/06/15 03:53:09;;;;;;;13.95;11.60;;;12.20;88.70;;;;;;5039663;28;20029;-44
2022/06/15 03:55:40;;;;;;;9.48;8.57;;;12.20;88.60;;;;;;5051066;28;20446;-43
2022/06/15 03:58:09;;;;;;;14.25;9.27;;;12.30;88.80;;;;;;5041652;28;20021;-42
2022/06/15 04:00:39;;;;;;;11.48;10.38;;;12.40;88.70;;;;;;5030969;28;20504;-42
2022/06/15 04:03:06;;;;;;;11.65;9.68;;;12.40;88.80;;;;;;5030400;28;20124;-43
2022/06/15 04:05:41;;;;;;;11.60;9.07;;;12.40;88.80;;;;;;5043071;28;20465;-42
2022/06/15 04:11:58;;;;;;;12.70;11.05;;;12.50;88.70;;;;;;5050870;28;20155;-42
2022/06/15 04:13:59;;;;;;;10.98;8.90;;;12.50;88.70;;;;;;5035734;28;20029;-42
2022/06/15 04:16:26;;;;;;;10.82;8.88;;;12.50;88.70;;;;;;5029814;28;20025;-43
2022/06/15 04:18:53;;;;;;;13.65;9.23;;;12.60;88.80;;;;;;5029694;28;20026;-43
2022/06/15 04:21:20;;;;;;;10.93;9.63;;;12.70;88.70;;;;;;5030973;28;20033;-41
2022/06/15 04:23:46;;;;;;;12.40;10.15;;;12.80;88.70;;;;;;5030252;28;20048;-43
2022/06/15 04:26:13;;;;;;;13.07;9.90;;;12.80;88.80;;;;;;5030586;28;20092;-42
2022/06/15 04:28:41;;;;;;;10.98;9.88;;;12.90;88.50;;;;;;5039001;28;20037;-44
2022/06/15 04:31:10;;;;;;;10.35;9.15;;;12.90;88.50;;;;;;5032899;28;20075;-43
2022/06/15 04:33:37;;;;;;;11.70;9.40;;;13.00;88.50;;;;;;5023491;28;20026;-42
2022/06/15 04:36:04;;;;;;;13.18;10.07;;;13.10;88.40;;;;;;5030202;28;20147;-43
2022/06/15 04:38:34;;;;;;;10.65;9.38;;;13.20;88.40;;;;;;5029501;28;20102;-43
2022/06/15 04:41:02;;;;;;;12.02;9.57;;;13.20;88.20;;;;;;5030476;28;20021;-43
2022/06/15 04:43:29;;;;;;;11.55;8.40;;;13.30;88.10;;;;;;5029680;28;20473;-42
2022/06/15 04:45:57;;;;;;;11.55;9.27;;;13.40;88.30;;;;;;5045532;28;20026;-44
2022/06/15 04:48:23;;;;;;;14.77;11.02;;;13.50;88.20;;;;;;5016764;28;20033;-44
2022/06/15 04:50:49;;;;;;;15.85;10.75;;;13.60;88.10;;;;;;5049812;28;20029;-43
2022/06/15 04:53:16;;;;;;;11.63;9.82;;;13.60;87.80;;;;;;5045533;28;20017;-42
2022/06/15 04:55:43;;;;;;;12.45;9.25;;;13.60;87.90;;;;;;5029759;28;20029;-43
2022/06/15 04:58:10;;;;;;;11.07;9.93;;;13.70;87.70;;;;;;5029013;28;20029;-43
2022/06/15 05:00:42;;;;;;;13.68;9.75;;;13.80;87.70;;;;;;5032590;28;20021;-43
2022/06/15 05:03:09;;;;;;;9.80;8.70;;;13.90;87.70;;;;;;5030090;28;20024;-44
2022/06/15 05:05:36;;;;;;;11.25;8.80;;;14.00;87.70;;;;;;5046863;28;20491;-43
2022/06/15 05:08:05;;;;;;;8.82;7.32;;;14.20;87.70;;;;;;5031964;28;20036;-44
2022/06/15 05:10:33;;;;;;;7.30;6.38;;;14.20;87.50;;;;;;5036881;28;20076;-42
2022/06/15 05:13:02;;;;;;;10.75;6.90;;;14.40;87.40;;;;;;5045263;28;20037;-42
2022/06/15 05:15:29;;;;;;;11.18;7.30;;;14.40;86.80;;;;;;5008935;28;20030;-43
2022/06/15 05:18:02;;;;;;;7.35;5.45;;;14.60;86.60;;;;;;5009997;28;20077;-43
2022/06/15 05:20:29;;;;;;;5.88;3.97;;;14.70;86.40;;;;;;5023998;28;20076;-43
2022/06/15 05:22:55;;;;;;;7.30;5.45;;;14.80;86.20;;;;;;5012288;28;20420;-42
2022/06/15 05:25:22;;;;;;;8.10;6.45;;;14.90;85.80;;;;;;5029173;28;20539;-42
2022/06/15 05:27:51;;;;;;;10.18;5.90;;;15.10;85.50;;;;;;5020785;28;20033;-44
2022/06/15 05:30:21;;;;;;;8.18;6.90;;;15.20;85.50;;;;;;5049523;28;20021;-45
2022/06/15 05:32:48;;;;;;;12.75;8.23;;;15.40;85.20;;;;;;5042211;28;20040;-44
2022/06/15 05:35:15;;;;;;;8.18;5.40;;;15.40;84.30;;;;;;5011436;28;20040;-44
2022/06/15 05:37:42;;;;;;;8.30;5.85;;;15.50;84.10;;;;;;5024711;28;20410;-45
2022/06/15 05:40:10;;;;;;;7.50;6.43;;;15.60;83.90;;;;;;4986571;28;20029;-44
2022/06/15 05:42:37;;;;;;;8.75;6.78;;;15.80;83.20;;;;;;5007517;28;20153;-44
2022/06/15 05:45:04;;;;;;;9.43;7.95;;;16.00;83.50;;;;;;5008537;28;20033;-44
2022/06/15 05:47:31;;;;;;;7.28;5.97;;;16.10;82.80;;;;;;5007661;28;20459;-44
2022/06/15 05:49:59;;;;;;;10.13;7.35;;;16.40;83.20;;;;;;5006068;28;20030;-44
2022/06/15 05:52:26;;;;;;;11.10;6.78;;;16.50;82.50;;;;;;4991452;28;20030;-47
2022/06/15 05:54:53;;;;;;;17.10;10.52;;;16.60;82.30;;;;;;5008971;28;20018;-43
2022/06/15 05:57:22;;;;;;;13.32;8.35;;;16.70;82.20;;;;;;5007022;28;20030;-47
2022/06/15 05:59:50;;;;;;;11.82;8.20;;;16.80;82.20;;;;;;5008293;28;20121;-46
2022/06/15 06:02:23;;;;;;;11.35;7.68;;;17.00;82.50;;;;;;5009064;28;20483;-50
2022/06/15 06:04:49;;;;;;;11.45;6.15;;;17.10;81.20;;;;;;4994992;28;20059;-49
2022/06/15 06:07:17;;;;;;;12.98;7.00;;;17.20;81.10;;;;;;5003279;28;20022;-46
2022/06/15 06:09:44;;;;;;;8.98;5.90;;;17.30;80.40;;;;;;5024394;28;20466;-46
2022/06/15 06:12:14;;;;;;;10.80;4.90;;;17.40;79.80;;;;;;4996898;28;20026;-45
2022/06/15 06:14:40;;;;;;;7.07;4.43;;;17.40;79.40;;;;;;5023540;28;20033;-45
2022/06/15 06:17:07;;;;;;;11.55;5.85;;;17.30;78.90;;;;;;5011703;28;20061;-47
2022/06/15 06:19:34;;;;;;;7.18;5.03;;;17.40;79.10;;;;;;5010526;28;20101;-46
2022/06/15 06:22:02;;;;;;;14.25;5.30;;;17.40;78.30;;;;;;5013708;28;20481;-46
2022/06/15 06:24:28;;;;;;;12.05;5.70;;;17.40;77.70;;;;;;5008337;28;20026;-46
2022/06/15 06:26:58;;;;;;;10.13;5.30;;;17.40;77.00;;;;;;5008877;28;20077;-45
2022/06/15 06:29:27;;;;;;;11.18;5.25;;;17.60;76.50;;;;;;4991467;28;20027;-47
2022/06/15 06:31:58;;;;;;;9.57;4.28;;;17.90;75.40;;;;;;4986413;28;20052;-46
2022/06/15 06:34:31;;;;;;;11.43;5.00;;;18.10;75.00;;;;;;5024264;28;20033;-45
2022/06/15 06:36:59;;;;;;;5.00;3.63;;;18.20;73.20;;;;;;5028944;28;20125;-45
2022/06/15 06:39:28;;;;;;;9.82;3.42;;;18.40;73.80;;;;;;5035565;28;20056;-45
2022/06/15 06:41:56;;;;;;;8.65;4.78;;;18.40;73.00;;;;;;5028687;28;20486;-45
2022/06/15 06:44:26;;;;;;;13.65;6.20;;;18.40;71.40;;;;;;5032439;28;20041;-45
2022/06/15 06:46:53;;;;;;;5.97;3.50;;;18.20;71.70;;;;;;5047046;28;20116;-45
2022/06/15 06:49:22;;;;;;;11.00;5.30;;;18.20;71.40;;;;;;5032220;28;20033;-45
2022/06/15 06:51:54;;;;;;;10.02;5.20;;;18.20;72.00;;;;;;5019545;28;20449;-45
2022/06/15 06:54:22;;;;;;;10.68;4.35;;;18.40;73.80;;;;;;5031758;28;20044;-44
2022/06/15 06:56:49;;;;;;;12.88;5.60;;;18.50;71.70;;;;;;5016125;28;20078;-45
2022/06/15 06:59:17;;;;;;;9.73;5.20;;;18.80;71.90;;;;;;5026196;28;20028;-47
2022/06/15 07:01:45;;;;;;;8.80;5.07;;;18.90;72.00;;;;;;5042056;28;20029;-45
2022/06/15 07:04:13;;;;;;;12.52;6.03;;;18.60;71.70;;;;;;5014795;28;20022;-45
2022/06/15 07:06:40;;;;;;;11.25;4.95;;;18.70;71.80;;;;;;5015996;28;20072;-45
2022/06/15 07:09:10;;;;;;;9.98;5.45;;;18.90;71.90;;;;;;5032031;28;20044;-45
2022/06/15 07:11:43;;;;;;;10.68;6.32;;;19.00;70.90;;;;;;5034695;28;20030;-44
2022/06/15 07:14:10;;;;;;;7.95;4.97;;;18.90;69.60;;;;;;5031150;28;20029;-45
2022/06/15 07:16:37;;;;;;;11.25;5.25;;;19.00;70.90;;;;;;5031655;28;20018;-45
2022/06/15 07:19:05;;;;;;;12.93;4.68;;;19.20;71.60;;;;;;5031365;28;20042;-44
2022/06/15 07:21:30;;;;;;;9.95;4.68;;;19.40;69.70;;;;;;5031232;28;20037;-45
2022/06/15 07:23:58;;;;;;;11.40;5.70;;;19.40;68.50;;;;;;5046106;28;20036;-45
2022/06/15 07:26:32;;;;;;;8.07;3.95;;;19.40;67.80;;;;;;5030914;28;20069;-45
2022/06/15 07:28:59;;;;;;;9.05;4.45;;;19.60;68.90;;;;;;5030330;28;20096;-48
2022/06/15 07:31:36;;;;;;;10.38;4.43;;;20.10;65.90;;;;;;5010184;28;20033;-45
2022/06/15 07:34:03;;;;;;;10.25;4.40;;;20.10;63.00;;;;;;5029264;28;20346;-46
2022/06/15 07:36:30;;;;;;;8.25;3.67;;;20.10;65.50;;;;;;5029944;28;20037;-46
2022/06/15 07:38:58;;;;;;;8.18;4.28;;;20.10;66.00;;;;;;5046816;28;20053;-45
2022/06/15 07:41:27;;;;;;;8.73;4.70;;;20.10;67.10;;;;;;5030394;28;20063;-47
2022/06/15 07:43:56;;;;;;;8.07;3.40;;;20.40;65.80;;;;;;5029185;28;20037;-45
2022/06/15 07:46:23;;;;;;;8.65;4.78;;;20.90;64.50;;;;;;5015496;28;20288;-45
2022/06/15 07:51:39;;;;;;;9.77;4.30;;;22.00;60.40;;;;;;5028876;28;20477;-45
2022/06/15 07:54:12;;;;;;;6.95;3.13;;;22.00;60.50;;;;;;5011897;28;20155;-46
2022/06/15 07:56:40;;;;;;;5.30;2.75;;;22.20;60.00;;;;;;5030587;28;20055;-47
2022/06/15 07:59:10;;;;;;;7.18;3.33;;;22.50;59.90;;;;;;5015461;28;20037;-48
2022/06/15 08:01:37;;;;;;;6.32;2.97;;;22.90;58.80;;;;;;5030426;28;20030;-47
2022/06/15 08:04:04;;;;;;;11.02;3.75;;;23.50;58.00;;;;;;5033981;28;20033;-47
2022/06/15 08:06:33;;;;;;;9.00;3.63;;;24.10;54.80;;;;;;5027479;28;20092;-46
2022/06/15 08:09:03;;;;;;;7.87;3.30;;;24.70;53.80;;;;;;5016936;28;20041;-46
2022/06/15 08:11:30;;;;;;;11.27;3.17;;;24.50;53.50;;;;;;5034269;28;20535;-46
2022/06/15 08:13:56;;;;;;;7.32;2.78;;;23.90;55.30;;;;;;5029721;28;20048;-46
2022/06/15 08:16:23;;;;;;;8.40;3.20;;;23.30;56.00;;;;;;5050614;28;20027;-46
2022/06/15 08:18:57;;;;;;;8.70;3.15;;;22.60;57.60;;;;;;5043785;28;20029;-46
2022/06/15 08:21:29;;;;;;;6.53;3.40;;;22.40;58.40;;;;;;5045837;28;20112;-47
2022/06/15 08:23:57;;;;;;;6.97;3.05;;;22.10;59.40;;;;;;5029581;28;20021;-45
2022/06/15 08:26:30;;;;;;;8.13;3.35;;;21.70;59.40;;;;;;5028604;28;20098;-46
2022/06/15 08:29:02;;;;;;;7.60;2.58;;;21.20;62.30;;;;;;5029527;28;20037;-46
2022/06/15 08:31:29;;;;;;;7.45;3.05;;;21.10;61.50;;;;;;5027878;28;20026;-46
2022/06/15 08:33:56;;;;;;;7.32;3.15;;;20.90;61.50;;;;;;5013083;28;20029;-45
2022/06/15 08:36:23;;;;;;;6.68;3.35;;;20.40;63.00;;;;;;5030072;28;20036;-45
2022/06/15 08:38:51;;;;;;;5.05;2.70;;;20.00;64.70;;;;;;5042517;28;20596;-45
2022/06/15 08:41:47;;;;;;;4.35;2.38;;;19.80;65.50;;;;;;5038907;28;20040;-45
2022/06/15 08:44:58;;;;;;;7.30;3.08;;;19.60;65.10;;;;;;5028900;28;20472;-45
2022/06/15 08:47:52;;;;;;;10.00;3.28;;;19.30;67.00;;;;;;5011282;28;20045;-46
2022/06/15 08:50:57;;;;;;;7.18;2.60;;;19.30;66.10;;;;;;5011934;28;20049;-45
2022/06/15 08:53:51;;;;;;;7.13;2.33;;;19.40;67.90;;;;;;5014191;28;20135;-45
2022/06/15 08:56:23;;;;;;;5.63;1.90;;;19.80;65.20;;;;;;5011490;28;20105;-48
2022/06/15 08:59:11;;;;;;;6.70;2.28;;;20.10;65.20;;;;;;5012109;28;20029;-49
2022/06/15 09:02:03;;;;;;;15.77;3.40;;;20.40;64.30;;;;;;5027423;28;20017;-45
2022/06/15 09:04:57;;;;;;;7.32;2.75;;;20.40;62.60;;;;;;5029581;28;20362;-47
2022/06/15 09:07:56;;;;;;;7.47;2.78;;;20.90;62.60;;;;;;5019720;28;20377;-45
2022/06/15 09:10:31;;;;;;;4.43;2.10;;;21.40;62.20;;;;;;5028700;28;20028;-46
2022/06/15 09:13:33;;;;;;;7.00;2.90;;;21.90;57.70;;;;;;5032863;28;20032;-46
2022/06/15 09:16:33;;;;;;;5.45;2.03;;;22.10;55.50;;;;;;5043876;28;20052;-46
2022/06/15 09:19:13;;;;;;;7.10;2.42;;;22.00;56.40;;;;;;5004741;28;20042;-45
2022/06/15 09:21:46;;;;;;;5.70;2.03;;;22.10;56.40;;;;;;5027436;28;20026;-45
2022/06/15 09:24:35;;;;;;;5.85;1.60;;;22.20;54.70;;;;;;5014403;28;20031;-46
2022/06/15 09:27:10;;;;;;;9.27;2.50;;;22.30;57.40;;;;;;5010873;28;20035;-48
2022/06/15 09:29:57;;;;;;;5.85;2.45;;;22.40;54.30;;;;;;5028938;28;20033;-45
2022/06/15 09:32:30;;;;;;;6.10;2.00;;;22.30;54.20;;;;;;5025676;28;20513;-45
2022/06/15 09:35:10;;;;;;;7.65;2.00;;;22.00;56.40;;;;;;5010405;28;20156;-46
2022/06/15 09:37:40;;;;;;;4.50;1.77;;;21.80;55.40;;;;;;5027660;28;20057;-47
2022/06/15 09:40:07;;;;;;;7.65;2.10;;;22.20;59.60;;;;;;5028001;28;20340;-46
2022/06/15 09:42:57;;;;;;;5.93;2.20;;;22.40;55.80;;;;;;5026089;28;20056;-47
2022/06/15 09:45:42;;;;;;;;;;;22.60;53.20;;;;;;5029473;28;20476;-46
2022/06/15 09:48:20;;;;;;;13.23;3.08;;;23.20;50.30;;;;;;5028288;28;19940;-47
2022/06/15 09:51:03;;;;;;;7.00;1.75;;;23.20;52.40;;;;;;5044526;28;20040;-47
2022/06/15 09:53:34;;;;;;;4.13;2.13;;;23.30;53.50;;;;;;5033264;28;20103;-46
2022/06/15 09:56:08;;;;;;;6.35;2.03;;;23.30;49.70;;;;;;5028350;28;20036;-46
2022/06/15 09:58:50;;;;;;;4.03;1.90;;;23.40;53.20;;;;;;5008331;28;20040;-47
2022/06/15 10:01:18;;;;;;;4.60;1.55;;;23.60;49.30;;;;;;5009489;28;20140;-47
2022/06/15 10:03:51;;;;;;;6.03;1.75;;;23.30;52.40;;;;;;5027470;28;20029;-48
2022/06/15 10:06:38;;;;;;;6.47;2.53;;;23.20;51.60;;;;;;5007002;28;20040;-46
2022/06/15 10:09:08;;;;;;;5.85;1.75;;;23.30;50.80;;;;;;5043682;28;20068;-46
2022/06/15 10:11:50;;;;;;;4.90;1.63;;;23.00;50.60;;;;;;5031143;28;20540;-48
2022/06/15 10:14:30;;;;;;;7.78;2.05;;;23.00;48.70;;;;;;5034847;28;20082;-46
2022/06/15 10:17:30;;;;;;;4.38;1.77;;;22.90;52.80;;;;;;5042708;28;20034;-46
2022/06/15 10:20:33;;;;;;;5.35;1.65;;;22.90;51.30;;;;;;5011733;28;20695;-48
2022/06/15 10:23:05;;;;;;;5.13;2.08;;;22.90;50.50;;;;;;5021263;28;20033;-46
2022/06/15 10:25:35;;;;;;;6.95;1.88;;;23.10;52.10;;;;;;5040951;28;20060;-46
2022/06/15 10:28:31;;;;;;;5.30;2.20;;;22.80;48.40;;;;;;5013888;28;20048;-46
2022/06/15 10:31:10;;;;;;;5.40;1.90;;;22.70;48.70;;;;;;5007484;28;20037;-46
2022/06/15 10:33:43;;;;;;;17.77;3.35;;;22.80;51.40;;;;;;5033873;28;20036;-46
2022/06/15 10:36:31;;;;;;;7.05;1.90;;;22.80;53.90;;;;;;5034693;28;20644;-46
2022/06/15 10:39:05;;;;;;;3.13;1.50;;;23.00;51.80;;;;;;5031221;28;20049;-46
2022/06/15 10:41:47;;;;;;;6.80;1.85;;;23.10;51.10;;;;;;5032455;28;20021;-46
2022/06/15 10:44:36;;;;;;;5.78;2.05;;;23.20;50.70;;;;;;5031786;28;20091;-45
2022/06/15 10:47:18;;;;;;;6.28;2.00;;;23.20;52.10;;;;;;5050421;28;20120;-46
2022/06/15 10:49:48;;;;;;;3.33;1.58;;;23.30;49.70;;;;;;5041626;28;20021;-47
2022/06/15 10:52:38;;;;;;;4.05;1.70;;;23.40;51.50;;;;;;5034490;28;20079;-47
2022/06/15 11:04:21;;;;;;;4.70;1.80;;;23.80;51.40;;;;;;5049655;28;20082;-48
2022/06/15 11:06:58;;;;;;;3.05;1.60;;;23.90;47.40;;;;;;5040993;28;20043;-48
2022/06/15 11:09:59;;;;;;;5.35;1.83;;;23.90;47.90;;;;;;5049859;28;20033;-46
2022/06/15 11:12:51;;;;;;;4.97;2.05;;;23.40;43.90;;;;;;4996616;28;20504;-50
2022/06/15 11:18:37;;;;;;;3.80;1.67;;;23.40;43.50;;;;;;5051837;28;20044;-45
2022/06/15 11:21:08;;;;;;;4.03;1.85;;;23.40;44.90;;;;;;5025072;28;20029;-45
2022/06/15 11:24:10;;;;;;;5.03;1.95;;;23.30;45.60;;;;;;5049931;28;20545;-47
2022/06/15 11:27:08;;;;;;;3.08;1.45;;;23.20;45.80;;;;;;5017831;28;20032;-46
2022/06/15 11:30:07;;;;;;;5.20;2.20;;;23.20;45.10;;;;;;5037055;28;20031;-46
2022/06/15 11:32:59;;;;;;;6.55;2.33;;;22.90;46.90;;;;;;5029354;28;20029;-48
2022/06/15 11:36:02;;;;;;;2.88;1.48;;;22.70;46.10;;;;;;5034260;28;20032;-46
2022/06/15 11:38:51;;;;;;;5.97;1.92;;;22.70;50.80;;;;;;5050879;28;20049;-47
2022/06/15 11:41:22;;;;;;;;;;;22.50;50.50;;;;;;5012029;28;20104;-46
2022/06/15 11:43:50;;;;;;;5.22;1.85;;;22.40;51.90;;;;;;5012088;28;20254;-46
2022/06/15 11:46:40;;;;;;;3.78;1.73;;;22.40;50.40;;;;;;5030795;28;20037;-46
2022/06/15 11:49:25;;;;;;;4.32;1.67;;;22.40;47.90;;;;;;5030627;28;20029;-46
2022/06/15 11:52:24;;;;;;;5.82;1.63;;;22.30;47.70;;;;;;5012618;28;20025;-47
2022/06/15 11:54:53;;;;;;;8.20;2.10;;;22.40;50.00;;;;;;5028123;28;20366;-46
2022/06/15 11:57:59;;;;;;;6.63;1.88;;;22.40;51.20;;;;;;5030172;28;20027;-46
2022/06/15 12:00:53;;;;;;;5.97;1.95;;;22.30;50.80;;;;;;5024514;28;20033;-46
2022/06/15 12:03:49;;;;;;;6.47;2.47;;;21.80;51.80;;;;;;5009464;28;20029;-47
2022/06/15 12:06:46;;;;;;;5.18;1.90;;;21.70;51.20;;;;;;5021459;28;20104;-46
2022/06/15 12:09:31;;;;;;;4.50;1.75;;;21.50;51.20;;;;;;5027213;28;20025;-46
2022/06/15 12:15:19;;;;;;;3.78;1.90;;;21.60;52.10;;;;;;5029174;28;20055;-46
2022/06/15 12:18:15;;;;;;;5.38;2.50;;;21.50;50.90;;;;;;5010623;28;20049;-46
2022/06/15 12:20:46;;;;;;;5.57;2.10;;;21.30;53.60;;;;;;5041129;28;20034;-48
2022/06/15 12:23:41;;;;;;;4.97;2.60;;;21.00;56.60;;;;;;5032322;28;20032;-45
2022/06/15 12:26:54;;;;;;;10.60;3.55;;;21.10;60.20;;;;;;5026126;28;20064;-45
2022/06/15 12:29:50;;;;;;;5.65;2.20;;;20.90;59.60;;;;;;4913477;29;20032;-46
2022/06/15 12:32:37;;;;;;;7.80;2.30;;;21.10;58.40;;;;;;4911382;29;20078;-46
2022/06/15 12:35:40;;;;;;;6.97;2.55;;;21.00;55.90;;;;;;4913840;29;20032;-47
2022/06/15 12:38:24;;;;;;;6.88;2.28;;;20.90;57.90;;;;;;4920677;29;20056;-46
2022/06/15 12:40:59;;;;;;;3.15;1.88;;;20.80;55.30;;;;;;4910004;29;20046;-46
2022/06/15 12:43:44;;;;;;;7.35;2.03;;;20.90;53.20;;;;;;4911898;29;20482;-46
2022/06/15 12:46:29;;;;;;;9.75;2.72;;;20.90;51.80;;;;;;4915311;29;20469;-46
2022/06/15 12:49:21;;;;;;;3.72;2.00;;;20.90;51.00;;;;;;4912034;29;20040;-48
2022/06/15 12:51:50;;;;;;;5.93;2.13;;;20.90;53.10;;;;;;4910645;29;20036;-48
2022/06/15 12:54:40;;;;;;;6.00;2.22;;;20.60;51.50;;;;;;4911937;29;20064;-45
2022/06/15 12:57:27;;;;;;;5.15;2.28;;;20.70;54.40;;;;;;4911552;29;20118;-46
2022/06/15 13:00:12;;;;;;;3.88;1.98;;;20.70;53.00;;;;;;4909910;29;20449;-45
2022/06/15 13:02:43;;;;;;;5.07;1.88;;;20.50;52.70;;;;;;4939474;28;20068;-48
2022/06/15 13:05:23;;;;;;;4.45;1.90;;;20.50;57.90;;;;;;5031003;28;20028;-45
2022/06/15 13:08:19;;;;;;;7.03;2.63;;;20.60;55.50;;;;;;5047666;28;20099;-45
2022/06/15 13:10:53;;;;;;;8.43;2.17;;;20.60;53.70;;;;;;5029088;28;20033;-45
2022/06/15 13:13:33;;;;;;;4.50;1.85;;;20.60;55.40;;;;;;5031694;28;20033;-46
2022/06/15 13:16:08;;;;;;;5.30;1.52;;;20.60;55.00;;;;;;5033860;28;20032;-45
2022/06/15 13:18:54;;;;;;;5.60;2.38;;;20.40;53.70;;;;;;5045514;28;20043;-45
2022/06/15 13:21:22;;;;;;;5.10;1.95;;;20.50;55.50;;;;;;5030070;28;20330;-45
2022/06/15 13:24:06;;;;;;;5.85;1.92;;;20.60;48.70;;;;;;5044798;28;20151;-47
2022/06/15 13:26:41;;;;;;;4.70;1.73;;;20.60;50.00;;;;;;5030435;28;20028;-46
2022/06/15 13:29:10;;;;;;;3.92;1.85;;;20.60;51.60;;;;;;5049175;28;20029;-45
2022/06/15 13:32:05;;;;;;;4.28;1.60;;;20.40;49.10;;;;;;5047831;28;20155;-45
2022/06/15 13:34:36;;;;;;;5.40;1.77;;;20.40;49.40;;;;;;5045263;28;20035;-46
2022/06/15 13:37:26;;;;;;;6.68;1.55;;;20.30;52.80;;;;;;5021966;28;20120;-45
2022/06/15 13:40:12;;;;;;;;;;;20.40;51.50;;;;;;5029284;28;20029;-46
2022/06/15 13:42:56;;;;;;;3.95;1.95;;;20.30;52.10;;;;;;5030721;28;19905;-45
2022/06/15 13:45:31;;;;;;;7.68;2.28;;;20.10;52.00;;;;;;5028457;28;20025;-46
2022/06/15 13:48:19;;;;;;;6.53;2.00;;;20.00;53.80;;;;;;5009347;28;20026;-45
2022/06/15 13:51:00;;;;;;;5.25;1.58;;;20.00;53.50;;;;;;5047560;28;20455;-45